createdAt,value
2023-01-19T00:00:10.876Z,22.58
2023-01-19T00:04:13.408Z,25.48
2023-01-19T00:14:08.928Z,20.23
2023-01-19T00:18:11.393Z,15.65
2023-01-19T00:22:13.140Z,22.70
2023-01-19T00:26:17.122Z,22.98
2023-01-19T00:30:52.718Z,17.35
2023-01-19T00:35:44.803Z,18.77
2023-01-19T00:39:46.533Z,17.25
2023-01-19T00:43:48.038Z,19.10
2023-01-19T00:47:56.879Z,24.40
2023-01-19T00:51:58.510Z,20.25
2023-01-19T00:56:00.332Z,21.42
2023-01-19T01:00:05.822Z,21.02
2023-01-19T01:04:07.519Z,21.15
2023-01-19T01:08:09.141Z,19.90
2023-01-19T01:12:10.719Z,25.52
2023-01-19T01:16:15.175Z,22.95
2023-01-19T01:20:20.019Z,20.05
2023-01-19T01:24:21.974Z,23.70
2023-01-19T01:28:23.767Z,19.98
2023-01-19T01:32:25.310Z,22.80
2023-01-19T01:36:29.087Z,21.77
2023-01-19T01:40:30.601Z,18.90
2023-01-19T01:44:50.988Z,19.42
2023-01-19T01:49:04.498Z,20.65
2023-01-19T01:53:11.327Z,20.33
2023-01-19T02:01:33.580Z,18.77
2023-01-19T02:05:36.458Z,17.25
2023-01-19T02:09:56.629Z,21.63
2023-01-19T02:13:58.435Z,15.82
2023-01-19T02:18:00.115Z,19.80
2023-01-19T02:22:09.901Z,14.98
2023-01-19T02:26:24.068Z,17.48
2023-01-19T02:30:25.631Z,19.10
2023-01-19T02:34:27.948Z,12.02
2023-01-19T02:38:30.786Z,16.23
2023-01-19T02:42:37.585Z,17.63
2023-01-19T02:50:46.076Z,14.80
2023-01-19T02:55:16.972Z,16.45
2023-01-19T02:59:41.715Z,19.50
2023-01-19T03:03:56.533Z,20.77
2023-01-19T03:08:30.040Z,21.77
2023-01-19T03:12:53.837Z,17.17
2023-01-19T03:17:00.647Z,16.45
2023-01-19T03:21:06.509Z,22.52
2023-01-19T03:25:09.113Z,24.75
2023-01-19T03:29:13.792Z,21.17
2023-01-19T03:33:23.054Z,18.38
2023-01-19T03:37:27.444Z,18.23
2023-01-19T03:41:32.318Z,23.38
2023-01-19T03:45:38.288Z,24.98
2023-01-19T03:49:43.936Z,20.17
2023-01-19T03:53:46.627Z,18.52
2023-01-19T03:57:48.119Z,22.42
2023-01-19T04:01:49.695Z,21.92
2023-01-19T04:05:51.696Z,19.98
2023-01-19T04:09:53.145Z,18.48
2023-01-19T04:13:54.643Z,21.15
2023-01-19T04:17:58.515Z,16.20
2023-01-19T04:22:01.873Z,20.13
2023-01-19T04:26:08.038Z,19.92
2023-01-19T04:30:10.507Z,17.45
2023-01-19T04:34:12.168Z,20.67
2023-01-19T04:38:13.775Z,17.13
2023-01-19T04:42:16.745Z,18.33
2023-01-19T04:46:18.388Z,19.00
2023-01-19T04:50:20.319Z,23.02
2023-01-19T04:54:22.630Z,16.65
2023-01-19T04:58:24.167Z,16.05
2023-01-19T05:02:26.219Z,12.30
2023-01-19T05:06:27.825Z,18.48
2023-01-19T05:10:29.508Z,12.60
2023-01-19T05:14:31.188Z,17.85
2023-01-19T05:18:36.193Z,15.00
2023-01-19T05:22:39.112Z,15.52
2023-01-19T05:26:40.818Z,18.02
2023-01-19T05:30:43.019Z,18.48
2023-01-19T05:34:44.600Z,11.85
2023-01-19T05:38:46.188Z,17.20
2023-01-19T05:42:48.004Z,16.58
2023-01-19T05:46:49.603Z,15.88
2023-01-19T05:50:51.415Z,15.82
2023-01-19T05:54:55.169Z,18.42
2023-01-19T05:58:56.826Z,14.77
2023-01-19T06:03:00.694Z,16.50
2023-01-19T06:07:02.821Z,16.10
2023-01-19T06:11:05.903Z,15.15
2023-01-19T06:15:08.415Z,13.15
2023-01-19T06:19:10.236Z,17.15
2023-01-19T06:23:11.679Z,15.57
2023-01-19T06:27:13.752Z,12.32
2023-01-19T06:31:15.513Z,11.75
2023-01-19T06:35:18.225Z,15.43
2023-01-19T06:39:19.823Z,12.07
2023-01-19T06:43:21.920Z,10.82
2023-01-19T06:47:23.546Z,13.73
2023-01-19T06:51:25.508Z,12.45
2023-01-19T06:55:27.962Z,14.63
2023-01-19T06:59:29.616Z,14.48
2023-01-19T07:03:31.401Z,10.75
2023-01-19T07:07:33.264Z,10.38
2023-01-19T07:11:34.934Z,11.20
2023-01-19T07:22:02.284Z,11.63
2023-01-19T07:26:03.968Z,10.57
2023-01-19T07:30:39.557Z,9.95
2023-01-19T07:34:41.045Z,9.82
2023-01-19T07:38:42.534Z,11.45
2023-01-19T07:43:34.376Z,10.57
2023-01-19T07:48:27.438Z,10.38
2023-01-19T07:53:19.765Z,10.57
2023-01-19T07:58:11.586Z,10.13
2023-01-19T08:02:38.369Z,9.13
2023-01-19T08:06:40.979Z,8.73
2023-01-19T08:11:32.686Z,10.70
2023-01-19T08:15:34.596Z,11.52
2023-01-19T08:19:36.049Z,8.70
2023-01-19T08:23:37.786Z,9.82
2023-01-19T08:27:39.314Z,9.73
2023-01-19T08:31:41.917Z,10.90
2023-01-19T08:35:48.816Z,8.18
2023-01-19T08:39:50.824Z,9.73
2023-01-19T08:44:26.966Z,9.88
2023-01-19T08:48:28.495Z,9.07
2023-01-19T08:53:06.609Z,8.63
2023-01-19T08:57:08.441Z,8.75
2023-01-19T09:01:14.723Z,9.23
2023-01-19T09:05:18.027Z,8.63
2023-01-19T09:09:19.969Z,8.23
2023-01-19T09:13:21.720Z,7.85
2023-01-19T09:17:23.744Z,8.50
2023-01-19T09:21:48.937Z,6.72
2023-01-19T09:26:15.824Z,8.10
2023-01-19T09:30:19.091Z,7.13
2023-01-19T09:34:22.601Z,10.38
2023-01-19T09:38:58.395Z,9.23
2023-01-19T09:43:14.155Z,7.28
2023-01-19T09:47:21.850Z,7.63
2023-01-19T09:51:50.931Z,7.70
2023-01-19T09:56:27.512Z,6.25
2023-01-19T10:01:19.773Z,6.95
2023-01-19T10:05:28.635Z,7.70
2023-01-19T10:10:10.348Z,7.15
2023-01-19T10:14:26.042Z,6.38
2023-01-19T10:18:51.540Z,8.18
2023-01-19T10:22:56.010Z,7.07
2023-01-19T10:26:57.481Z,6.32
2023-01-19T10:31:35.588Z,8.55
2023-01-19T10:35:37.182Z,7.45
2023-01-19T10:39:52.781Z,6.22
2023-01-19T10:44:01.609Z,6.07
2023-01-19T10:48:07.260Z,6.40
2023-01-19T10:52:58.856Z,6.75
2023-01-19T10:57:51.417Z,5.70
2023-01-19T11:02:43.607Z,7.68
2023-01-19T11:06:45.567Z,7.15
2023-01-19T11:11:08.264Z,6.85
2023-01-19T11:15:24.217Z,6.82
2023-01-19T11:19:31.283Z,5.97
2023-01-19T11:23:59.824Z,6.57
2023-01-19T11:28:40.602Z,6.57
2023-01-19T11:33:32.739Z,6.35
2023-01-19T11:37:34.492Z,6.13
2023-01-19T11:41:38.240Z,8.48
2023-01-19T11:45:40.227Z,6.63
2023-01-19T11:49:52.344Z,7.43
2023-01-19T11:53:53.907Z,9.50
2023-01-19T11:57:55.441Z,8.27
2023-01-19T12:02:00.348Z,9.70
2023-01-19T12:06:08.445Z,8.02
2023-01-19T12:11:26.488Z,7.88
2023-01-19T12:15:41.565Z,7.90
2023-01-19T12:19:54.839Z,7.88
2023-01-19T12:24:33.804Z,6.65
2023-01-19T12:28:40.392Z,9.20
2023-01-19T12:32:43.196Z,6.00
2023-01-19T12:36:45.419Z,6.03
2023-01-19T12:40:46.929Z,6.40
2023-01-19T12:44:48.891Z,5.90
2023-01-19T12:48:51.345Z,5.75
2023-01-19T12:52:58.386Z,7.00
2023-01-19T12:57:06.703Z,4.40
2023-01-19T13:01:19.256Z,7.50
2023-01-19T13:05:32.664Z,9.32
2023-01-19T13:09:38.698Z,6.25
2023-01-19T13:13:49.414Z,5.88
2023-01-19T13:17:52.874Z,5.45
2023-01-19T13:22:44.724Z,4.68
2023-01-19T13:27:37.592Z,8.85
2023-01-19T13:31:42.548Z,5.75
2023-01-19T13:35:57.328Z,5.70
2023-01-19T13:39:59.989Z,5.55
2023-01-19T13:44:20.928Z,8.05
2023-01-19T13:48:24.083Z,5.97
2023-01-19T13:52:30.177Z,6.70
2023-01-19T13:56:31.820Z,5.70
2023-01-19T14:00:33.508Z,6.53
2023-01-19T14:04:35.429Z,6.20
2023-01-19T14:08:39.257Z,7.00
2023-01-19T14:13:02.581Z,6.53
2023-01-19T14:17:04.941Z,5.03
2023-01-19T14:21:09.644Z,5.88
2023-01-19T14:25:31.930Z,6.22
2023-01-19T14:30:25.824Z,6.07
2023-01-19T14:35:17.717Z,7.28
2023-01-19T14:39:25.084Z,6.57
2023-01-19T14:43:28.481Z,6.05
2023-01-19T14:47:37.522Z,7.82
2023-01-19T14:51:55.884Z,6.10
2023-01-19T14:56:25.101Z,8.07
2023-01-19T15:00:27.133Z,7.57
2023-01-19T15:04:28.890Z,7.32
2023-01-19T15:08:33.468Z,7.68
2023-01-19T15:12:35.378Z,8.07
2023-01-19T15:17:16.928Z,6.25
2023-01-19T15:21:21.581Z,9.00
2023-01-19T15:25:59.013Z,7.68
2023-01-19T15:30:00.748Z,7.35
2023-01-19T15:34:03.665Z,9.93
2023-01-19T15:43:40.579Z,9.73
2023-01-19T15:47:41.973Z,10.25
2023-01-19T15:51:43.685Z,6.70
2023-01-19T15:55:49.033Z,9.50
2023-01-19T15:59:51.413Z,9.15
2023-01-19T16:03:52.830Z,7.38
2023-01-19T16:07:54.549Z,8.50
2023-01-19T16:11:57.266Z,9.18
2023-01-19T16:16:07.962Z,8.90
2023-01-19T16:20:12.931Z,9.88
2023-01-19T16:28:17.470Z,10.95
2023-01-19T16:32:19.507Z,11.32
2023-01-19T16:36:26.999Z,10.15
2023-01-19T16:40:28.632Z,9.07
2023-01-19T16:44:30.311Z,8.57
2023-01-19T16:48:34.873Z,10.75
2023-01-19T16:52:36.429Z,9.70
2023-01-19T16:56:38.152Z,10.82
2023-01-19T17:00:39.585Z,9.07
2023-01-19T17:04:41.233Z,7.65
2023-01-19T17:08:43.007Z,7.78
2023-01-19T17:12:44.854Z,9.90
2023-01-19T17:16:46.806Z,8.65
2023-01-19T17:20:48.563Z,8.50
2023-01-19T17:24:50.076Z,9.30
2023-01-19T17:28:51.911Z,7.55
2023-01-19T17:32:53.498Z,9.75
2023-01-19T17:37:02.530Z,8.80
2023-01-19T17:41:15.374Z,9.38
2023-01-19T17:49:18.423Z,8.15
2023-01-19T17:53:19.901Z,10.02
2023-01-19T17:57:21.412Z,8.90
2023-01-19T18:01:29.231Z,8.73
2023-01-19T18:05:30.851Z,7.68
2023-01-19T18:09:32.458Z,10.75
2023-01-19T18:13:34.007Z,12.55
2023-01-19T18:17:35.860Z,14.65
2023-01-19T18:21:37.999Z,11.80
2023-01-19T18:25:40.027Z,11.57
2023-01-19T18:29:42.304Z,12.55
2023-01-19T18:33:43.857Z,13.77
2023-01-19T18:37:45.493Z,15.98
2023-01-19T18:41:47.101Z,14.80
2023-01-19T18:45:49.867Z,16.50
2023-01-19T18:49:51.519Z,16.40
2023-01-19T18:53:53.057Z,14.77
2023-01-19T18:57:54.513Z,16.42
2023-01-19T19:01:56.189Z,15.93
2023-01-19T19:06:02.381Z,15.13
2023-01-19T19:10:05.813Z,15.07
2023-01-19T19:14:07.456Z,15.95
2023-01-19T19:18:09.799Z,16.30
2023-01-19T19:22:11.433Z,13.73
2023-01-19T19:26:12.939Z,15.68
2023-01-19T19:30:15.387Z,15.00
2023-01-19T19:34:17.278Z,16.88
2023-01-19T19:38:18.756Z,14.48
2023-01-19T19:42:20.307Z,16.55
2023-01-19T19:46:24.104Z,14.25
2023-01-19T19:50:25.761Z,14.32
2023-01-19T19:54:27.293Z,15.00
2023-01-19T19:58:29.258Z,15.80
2023-01-19T20:02:31.640Z,12.93
2023-01-19T20:06:38.513Z,13.60
2023-01-19T20:10:40.357Z,15.00
2023-01-19T20:14:41.955Z,12.38
2023-01-19T20:18:48.401Z,11.50
2023-01-19T20:22:50.080Z,11.95
2023-01-19T20:26:53.070Z,12.38
2023-01-19T20:30:54.930Z,10.70
2023-01-19T20:34:56.417Z,11.05
2023-01-19T20:38:58.776Z,11.38
2023-01-19T20:43:00.248Z,16.02
2023-01-19T20:47:01.861Z,12.40
2023-01-19T20:51:06.677Z,11.55
2023-01-19T20:55:08.816Z,14.23
2023-01-19T20:59:40.760Z,12.10
2023-01-19T21:04:17.214Z,14.40
2023-01-19T21:08:19.032Z,18.25
2023-01-19T21:12:45.865Z,30.38
2023-01-19T21:16:47.420Z,22.95
2023-01-19T21:21:39.423Z,13.23
2023-01-19T21:31:41.653Z,14.77
2023-01-19T21:41:38.401Z,14.00
2023-01-19T21:45:43.300Z,15.25
2023-01-19T21:49:48.029Z,16.13
2023-01-19T21:53:51.983Z,14.88
2023-01-19T21:57:53.636Z,19.42
2023-01-19T22:01:55.456Z,21.80
2023-01-19T22:06:02.484Z,16.70
2023-01-19T22:10:05.274Z,16.17
2023-01-19T22:14:09.185Z,17.73
2023-01-19T22:18:10.765Z,18.38
2023-01-19T22:22:12.416Z,17.52
2023-01-19T22:26:14.251Z,15.07
2023-01-19T22:30:16.077Z,14.95
2023-01-19T22:34:42.597Z,16.50
2023-01-19T22:38:44.646Z,15.65
2023-01-19T22:42:47.646Z,16.38
2023-01-19T22:47:23.166Z,14.48
2023-01-19T22:52:14.506Z,16.88
2023-01-19T22:56:42.308Z,15.25
2023-01-19T23:06:16.045Z,12.95
2023-01-19T23:10:17.795Z,16.25
2023-01-19T23:14:53.320Z,19.40
2023-01-19T23:18:59.802Z,13.40
2023-01-19T23:27:03.010Z,15.20
2023-01-19T23:31:22.652Z,14.90
2023-01-19T23:35:50.833Z,16.83
2023-01-19T23:40:02.600Z,15.55
2023-01-19T23:44:05.257Z,13.52
2023-01-19T23:48:06.964Z,16.52
2023-01-19T23:52:08.602Z,16.20
2023-01-19T23:56:18.149Z,15.85
